Time;durP1;ratioP1;P1;durP2;ratioP2;P2;SDS_P1;SDS_P2;PMS_P1;PMS_P2;Temp;Humidity;BMP_temperature;BMP_pressure;BME280_temperature;BME280_humidity;BME280_pressure;Samples;Min_cycle;Max_cycle;Signal;HPM_P1;HPM_P2
2023/03/02 00:02:08;;;;;;;14.53;7.70;;;1.30;99.90;;;;;;5072983;28;20241;-48
2023/03/02 00:04:41;;;;;;;13.07;6.77;;;1.30;99.90;;;;;;5070870;28;20297;-47
2023/03/02 00:07:09;;;;;;;12.27;6.50;;;1.30;99.90;;;;;;5073418;28;20578;-49
2023/03/02 00:09:36;;;;;;;14.57;7.97;;;1.30;99.90;;;;;;5072839;28;20655;-48
2023/03/02 00:12:03;;;;;;;15.83;7.30;;;1.30;99.90;;;;;;5073543;28;20201;-49
2023/03/02 00:14:29;;;;;;;9.97;6.17;;;1.30;99.90;;;;;;5073228;28;20187;-48
2023/03/02 00:16:55;;;;;;;12.73;6.50;;;1.30;99.90;;;;;;5073234;28;20210;-46
2023/03/02 00:19:20;;;;;;;12.37;7.73;;;1.30;99.90;;;;;;5073187;28;20262;-49
2023/03/02 00:21:46;;;;;;;14.10;7.43;;;1.30;99.90;;;;;;5072798;28;20200;-48
2023/03/02 00:24:14;;;;;;;11.40;6.67;;;1.30;99.90;;;;;;5072865;28;20265;-46
2023/03/02 00:26:40;;;;;;;12.90;7.10;;;1.30;99.90;;;;;;5073136;28;20211;-49
2023/03/02 00:29:06;;;;;;;13.60;7.50;;;1.20;99.90;;;;;;5073039;28;20187;-49
2023/03/02 00:31:32;;;;;;;12.77;7.60;;;1.20;99.90;;;;;;5075198;28;20225;-49
2023/03/02 00:33:57;;;;;;;14.10;7.03;;;1.10;99.90;;;;;;5076564;28;20189;-47
2023/03/02 00:36:23;;;;;;;14.10;7.60;;;1.10;99.90;;;;;;5076771;28;20636;-48
2023/03/02 00:38:53;;;;;;;13.33;6.60;;;1.10;99.90;;;;;;5076733;28;20180;-47
2023/03/02 00:41:20;;;;;;;15.53;7.20;;;1.10;99.90;;;;;;5076397;28;20200;-47
2023/03/02 00:43:46;;;;;;;12.97;7.90;;;1.00;99.90;;;;;;5076800;28;20192;-49
2023/03/02 00:46:14;;;;;;;14.93;7.20;;;1.00;99.90;;;;;;5076989;28;20199;-48
2023/03/02 00:48:40;;;;;;;11.47;7.13;;;1.00;99.90;;;;;;5077243;28;20175;-47
2023/03/02 00:51:06;;;;;;;11.17;6.73;;;0.90;99.90;;;;;;5076394;28;20298;-47
2023/03/02 00:53:32;;;;;;;13.53;7.50;;;1.00;99.90;;;;;;5076584;28;20187;-48
2023/03/02 00:55:59;;;;;;;12.87;7.27;;;1.00;99.90;;;;;;5076226;28;20187;-49
2023/03/02 00:58:26;;;;;;;16.63;7.63;;;0.90;99.90;;;;;;5076507;28;20199;-48
2023/03/02 01:00:51;;;;;;;13.00;7.03;;;0.90;99.90;;;;;;5076268;28;20265;-47
2023/03/02 01:03:17;;;;;;;12.90;6.63;;;0.90;99.90;;;;;;5074689;28;20200;-47
2023/03/02 01:05:42;;;;;;;13.17;7.33;;;0.90;99.90;;;;;;5076074;28;20222;-47
2023/03/02 01:08:08;;;;;;;16.97;7.90;;;0.80;99.90;;;;;;5075985;28;20190;-48
2023/03/02 01:10:34;;;;;;;11.73;6.83;;;0.80;99.90;;;;;;5075916;28;20230;-48
2023/03/02 01:12:59;;;;;;;12.00;7.20;;;0.70;99.90;;;;;;5076112;28;20636;-48
2023/03/02 01:15:25;;;;;;;14.30;7.10;;;0.70;99.90;;;;;;5075841;28;20194;-48
2023/03/02 01:17:50;;;;;;;19.37;7.03;;;0.60;99.90;;;;;;5075785;28;20211;-48
2023/03/02 01:20:16;;;;;;;14.40;7.10;;;0.60;99.90;;;;;;5075633;28;20207;-48
2023/03/02 01:22:43;;;;;;;12.60;7.13;;;0.50;99.90;;;;;;5075879;28;20187;-49
2023/03/02 01:25:10;;;;;;;10.63;7.00;;;0.50;99.90;;;;;;5075913;28;20190;-48
2023/03/02 01:27:36;;;;;;;14.67;7.40;;;0.50;99.90;;;;;;5076149;28;20244;-47
2023/03/02 01:30:02;;;;;;;14.07;7.30;;;0.40;99.90;;;;;;5075689;28;20214;-47
2023/03/02 01:32:27;;;;;;;15.50;7.63;;;0.30;99.90;;;;;;5076299;28;20638;-48
2023/03/02 01:34:53;;;;;;;14.60;7.63;;;0.30;99.90;;;;;;5075663;28;20175;-48
2023/03/02 01:37:19;;;;;;;12.43;6.77;;;0.30;99.90;;;;;;5077097;28;20278;-48
2023/03/02 01:39:45;;;;;;;12.50;7.60;;;0.20;99.90;;;;;;5075579;28;20207;-47
2023/03/02 01:42:11;;;;;;;12.27;6.73;;;0.20;99.90;;;;;;5075305;28;20206;-47
2023/03/02 01:44:43;;;;;;;13.17;6.93;;;0.20;99.90;;;;;;5075542;28;20639;-48
2023/03/02 01:47:17;;;;;;;14.47;7.93;;;0.10;99.90;;;;;;5073919;28;20187;-47
2023/03/02 01:49:47;;;;;;;14.27;7.87;;;0.10;99.90;;;;;;5075300;28;20218;-48
2023/03/02 01:52:14;;;;;;;16.57;7.23;;;0.00;99.90;;;;;;5075088;28;20175;-47
2023/03/02 01:54:41;;;;;;;10.77;6.67;;;0.00;99.90;;;;;;5074991;28;20193;-49
2023/03/02 01:57:07;;;;;;;10.50;7.03;;;0.00;99.90;;;;;;5075008;28;20171;-49
2023/03/02 01:59:35;;;;;;;12.70;7.07;;;-0.10;99.90;;;;;;5075196;28;20179;-47
2023/03/02 02:02:05;;;;;;;11.70;6.93;;;-0.20;99.90;;;;;;5074989;28;20193;-48
2023/03/02 02:04:36;;;;;;;13.10;7.70;;;-0.20;99.90;;;;;;5074764;28;20273;-48
2023/03/02 02:07:04;;;;;;;10.73;7.03;;;-0.20;99.90;;;;;;5074778;28;20190;-48
2023/03/02 02:09:35;;;;;;;15.33;8.23;;;-0.20;99.90;;;;;;5076820;28;20178;-47
2023/03/02 02:12:01;;;;;;;11.30;6.93;;;-0.30;99.90;;;;;;5079607;28;20482;-49
2023/03/02 02:14:27;;;;;;;13.50;7.33;;;-0.30;99.90;;;;;;5074910;28;20183;-48
2023/03/02 02:16:53;;;;;;;12.80;7.50;;;-0.30;99.90;;;;;;5074636;28;20525;-47
2023/03/02 02:19:50;;;;;;;10.77;6.87;;;-0.40;99.90;;;;;;5074864;28;20187;-48
2023/03/02 02:22:25;;;;;;;12.03;6.93;;;-0.40;99.90;;;;;;5068836;28;20225;-48
2023/03/02 02:24:58;;;;;;;11.37;7.33;;;-0.40;99.90;;;;;;5074861;28;20175;-48
2023/03/02 02:27:32;;;;;;;16.17;7.23;;;-0.50;99.90;;;;;;5074482;28;20184;-49
2023/03/02 02:30:01;;;;;;;12.73;7.43;;;-0.50;99.90;;;;;;5074451;28;20468;-50
2023/03/02 02:32:33;;;;;;;10.93;6.27;;;-0.50;99.90;;;;;;5074598;28;20414;-46
2023/03/02 02:35:32;;;;;;;11.43;7.50;;;-0.50;99.90;;;;;;5074640;28;20163;-46
2023/03/02 02:38:04;;;;;;;14.50;7.43;;;-0.50;99.90;;;;;;5065662;28;20250;-46
2023/03/02 02:40:54;;;;;;;13.93;7.83;;;-0.50;99.90;;;;;;5074336;28;20468;-48
2023/03/02 02:43:21;;;;;;;13.47;7.33;;;-0.50;99.90;;;;;;5074623;28;20189;-44
2023/03/02 02:45:51;;;;;;;11.10;6.83;;;-0.60;99.90;;;;;;5074219;28;20413;-48
2023/03/02 02:48:23;;;;;;;14.17;7.43;;;-0.60;99.90;;;;;;5074644;28;20420;-48
2023/03/02 02:50:52;;;;;;;14.60;8.37;;;-0.60;99.90;;;;;;5073863;28;20234;-47
2023/03/02 02:53:25;;;;;;;14.00;7.30;;;-0.60;99.90;;;;;;5073619;28;20466;-47
2023/03/02 02:55:53;;;;;;;10.60;6.90;;;-0.60;99.90;;;;;;5074022;28;20398;-49
2023/03/02 02:58:49;;;;;;;11.97;7.27;;;-0.60;99.90;;;;;;5074095;28;20574;-47
2023/03/02 03:01:18;;;;;;;14.13;6.83;;;-0.70;99.90;;;;;;5073756;28;20978;-46
2023/03/02 03:03:56;;;;;;;12.23;7.23;;;-0.70;99.90;;;;;;5073801;28;20481;-46
2023/03/02 03:06:37;;;;;;;14.53;6.87;;;-0.70;99.90;;;;;;5074191;28;20794;-49
2023/03/02 03:09:03;;;;;;;13.60;7.60;;;-0.70;99.90;;;;;;5073947;28;20404;-49
2023/03/02 03:11:32;;;;;;;14.07;7.07;;;-0.80;99.90;;;;;;5073719;28;20903;-47
2023/03/02 03:14:05;;;;;;;13.37;7.80;;;-0.80;99.90;;;;;;5073886;28;20444;-48
2023/03/02 03:16:32;;;;;;;13.63;7.43;;;-0.90;99.90;;;;;;5073916;28;20404;-48
2023/03/02 03:19:04;;;;;;;13.13;7.13;;;-0.90;99.90;;;;;;5073521;28;20419;-46
2023/03/02 03:21:29;;;;;;;12.20;6.97;;;-0.90;99.90;;;;;;5073358;28;21008;-47
2023/03/02 03:23:55;;;;;;;13.70;6.73;;;-0.90;99.90;;;;;;5073730;28;20502;-48
2023/03/02 03:26:21;;;;;;;13.47;7.63;;;-0.90;99.90;;;;;;5073749;28;20186;-47
2023/03/02 03:28:46;;;;;;;12.87;7.70;;;-0.90;99.90;;;;;;5073429;28;20185;-48
2023/03/02 04:14:57;;;;;;;18.27;7.37;;;-1.10;99.90;;;;;;5076929;28;20429;-46
2023/03/02 04:17:22;;;;;;;13.73;6.97;;;-1.10;99.90;;;;;;5076883;28;20798;-48
2023/03/02 04:19:49;;;;;;;12.77;7.07;;;-1.10;99.90;;;;;;5077076;28;20199;-49
2023/03/02 04:22:15;;;;;;;15.80;7.73;;;-1.10;99.90;;;;;;5076879;28;20185;-49
2023/03/02 04:24:42;;;;;;;13.30;7.37;;;-1.10;99.90;;;;;;5076782;28;20506;-49
2023/03/02 04:27:08;;;;;;;16.47;7.47;;;-1.10;99.90;;;;;;5076712;28;20454;-47
2023/03/02 04:29:35;;;;;;;13.20;7.77;;;-1.10;99.90;;;;;;5076565;28;20428;-49
2023/03/02 04:32:01;;;;;;;14.60;7.77;;;-1.10;99.90;;;;;;5076991;28;20442;-48
2023/03/02 04:34:26;;;;;;;14.87;7.93;;;-1.10;99.90;;;;;;5077785;28;20485;-48
2023/03/02 04:36:52;;;;;;;15.47;7.73;;;-1.20;99.90;;;;;;5079668;28;20260;-51
2023/03/02 04:39:18;;;;;;;16.27;8.10;;;-1.10;99.90;;;;;;5080050;28;20181;-49
2023/03/02 04:41:45;;;;;;;17.77;7.67;;;-1.20;99.90;;;;;;5080505;28;20484;-51
2023/03/02 04:44:12;;;;;;;13.07;7.50;;;-1.10;99.90;;;;;;5080161;28;20181;-49
2023/03/02 04:46:37;;;;;;;14.33;8.07;;;-1.10;99.90;;;;;;5076857;28;20451;-48
2023/03/02 04:49:03;;;;;;;15.03;7.83;;;-1.10;99.90;;;;;;5076588;28;20826;-49
2023/03/02 04:51:33;;;;;;;16.90;6.90;;;-1.00;99.90;;;;;;5076295;28;20209;-49
2023/03/02 04:54:02;;;;;;;14.57;7.13;;;-1.00;99.90;;;;;;5077421;28;20887;-47
2023/03/02 04:56:27;;;;;;;12.80;6.73;;;-1.00;99.90;;;;;;5076185;28;20441;-48
2023/03/02 04:58:54;;;;;;;12.10;7.10;;;-0.90;99.90;;;;;;5076196;28;20447;-47
2023/03/02 05:01:20;;;;;;;12.47;7.53;;;-0.90;99.90;;;;;;5076139;28;20207;-47
2023/03/02 05:03:46;;;;;;;11.10;6.57;;;-0.90;99.90;;;;;;5076215;28;20449;-47
2023/03/02 05:08:40;;;;;;;10.43;7.13;;;-0.90;99.90;;;;;;5053259;28;20874;-49
2023/03/02 05:11:07;;;;;;;10.63;6.80;;;-0.90;99.90;;;;;;5055888;28;20573;-46
2023/03/02 05:13:33;;;;;;;12.80;7.30;;;-0.90;99.90;;;;;;5056238;28;20415;-47
2023/03/02 05:15:59;;;;;;;14.63;7.83;;;-0.90;99.90;;;;;;5056655;28;20411;-49
2023/03/02 05:18:25;;;;;;;11.13;6.83;;;-1.00;99.90;;;;;;5057874;28;20388;-47
2023/03/02 05:20:52;;;;;;;13.07;6.63;;;-1.00;99.90;;;;;;5056064;28;20435;-48
2023/03/02 05:23:25;;;;;;;11.87;6.37;;;-1.00;99.90;;;;;;5056118;28;20179;-48
2023/03/02 05:25:53;;;;;;;10.87;7.03;;;-1.00;99.90;;;;;;5056964;28;20395;-49
2023/03/02 05:28:19;;;;;;;10.27;6.33;;;-1.00;99.90;;;;;;5055705;28;20477;-49
2023/03/02 05:30:46;;;;;;;12.33;7.03;;;-1.00;99.90;;;;;;5057106;28;20494;-49
2023/03/02 05:33:12;;;;;;;10.70;6.27;;;-1.00;99.90;;;;;;5055978;28;20902;-49
2023/03/02 05:35:38;;;;;;;12.43;7.20;;;-1.10;99.90;;;;;;5055605;28;20415;-48
2023/03/02 05:38:04;;;;;;;12.20;7.30;;;-1.10;99.90;;;;;;5055476;28;20176;-47
2023/03/02 05:40:31;;;;;;;12.03;7.13;;;-1.00;99.90;;;;;;5055336;28;20279;-45
2023/03/02 05:42:57;;;;;;;15.33;7.63;;;-1.10;99.90;;;;;;5055662;28;20408;-47
2023/03/02 05:45:29;;;;;;;11.13;7.03;;;-1.10;99.90;;;;;;5055421;28;20440;-46
2023/03/02 05:47:55;;;;;;;9.40;6.20;;;-1.10;99.90;;;;;;5055295;28;20270;-47
2023/03/02 05:50:20;;;;;;;13.93;7.13;;;-1.10;99.90;;;;;;5055307;28;20508;-48
2023/03/02 05:52:46;;;;;;;10.37;6.93;;;-1.10;99.90;;;;;;5055171;28;20181;-48
2023/03/02 05:55:14;;;;;;;16.53;7.03;;;-1.10;99.90;;;;;;5055442;28;20663;-48
2023/03/02 05:57:40;;;;;;;10.70;6.67;;;-1.20;99.90;;;;;;5055400;28;20268;-47
2023/03/02 06:00:07;;;;;;;12.67;7.00;;;-1.20;99.90;;;;;;5055192;28;20448;-47
2023/03/02 06:02:32;;;;;;;10.20;6.30;;;-1.30;99.90;;;;;;5057531;28;20424;-47
2023/03/02 06:04:58;;;;;;;14.00;6.60;;;-1.30;99.90;;;;;;5055524;28;20953;-49
2023/03/02 06:07:24;;;;;;;11.37;7.37;;;-1.40;99.90;;;;;;5054803;28;20671;-47
2023/03/02 06:09:50;;;;;;;13.30;7.30;;;-1.40;99.90;;;;;;5054962;28;20557;-47
2023/03/02 06:12:16;;;;;;;10.17;6.87;;;-1.40;99.90;;;;;;5054816;28;20186;-49
2023/03/02 06:14:42;;;;;;;11.10;6.97;;;-1.40;99.90;;;;;;5055047;28;20234;-48
2023/03/02 06:17:08;;;;;;;13.97;6.73;;;-1.50;99.90;;;;;;5054733;28;20417;-46
2023/03/02 06:19:33;;;;;;;17.63;7.10;;;-1.50;99.90;;;;;;5054697;28;20668;-47
2023/03/02 06:21:59;;;;;;;12.93;7.40;;;-1.40;99.90;;;;;;5054744;28;20291;-46
2023/03/02 06:24:25;;;;;;;11.60;6.47;;;-1.40;99.90;;;;;;5054931;28;20188;-48
2023/03/02 06:26:52;;;;;;;12.27;7.00;;;-1.40;99.90;;;;;;5054878;28;20185;-47
2023/03/02 06:29:18;;;;;;;11.87;6.90;;;-1.40;99.90;;;;;;5053028;28;20184;-49
2023/03/02 06:31:43;;;;;;;13.50;7.00;;;-1.40;99.90;;;;;;5054373;28;20560;-46
2023/03/02 06:34:09;;;;;;;11.53;7.37;;;-1.40;99.90;;;;;;5054599;28;20183;-45
2023/03/02 06:36:37;;;;;;;14.83;7.77;;;-1.30;99.90;;;;;;5054372;28;20240;-48
2023/03/02 06:39:04;;;;;;;12.77;8.00;;;-1.20;99.90;;;;;;5054218;28;20587;-47
2023/03/02 06:41:29;;;;;;;12.00;6.57;;;-1.10;99.90;;;;;;5054137;28;20965;-49
2023/03/02 06:43:55;;;;;;;13.27;7.57;;;-1.10;99.90;;;;;;5054533;28;20423;-49
2023/03/02 06:46:20;;;;;;;14.00;7.03;;;-1.00;99.90;;;;;;5054106;28;20184;-49
2023/03/02 06:48:46;;;;;;;12.63;7.93;;;-1.00;99.90;;;;;;5054130;28;20173;-47
2023/03/02 06:51:12;;;;;;;13.47;7.80;;;-1.00;99.90;;;;;;5053899;28;20266;-49
2023/03/02 06:53:37;;;;;;;14.10;7.97;;;-1.00;99.90;;;;;;5054304;28;20173;-47
2023/03/02 06:56:03;;;;;;;12.57;7.27;;;-1.00;99.90;;;;;;5053964;28;20178;-48
2023/03/02 06:58:29;;;;;;;23.40;7.27;;;-1.00;99.90;;;;;;5053975;28;20201;-46
2023/03/02 07:00:54;;;;;;;17.27;7.97;;;-1.10;99.90;;;;;;5053944;28;20697;-47
2023/03/02 07:03:20;;;;;;;13.73;7.17;;;-1.10;99.90;;;;;;5054140;28;20648;-46
2023/03/02 07:05:47;;;;;;;15.40;7.20;;;-1.10;99.90;;;;;;5053715;28;20204;-48
2023/03/02 07:08:13;;;;;;;12.50;7.10;;;-1.10;99.90;;;;;;5053719;28;20191;-50
2023/03/02 07:10:38;;;;;;;11.50;6.83;;;-1.10;99.90;;;;;;5053659;28;20519;-48
2023/03/02 07:13:04;;;;;;;20.80;7.70;;;-1.00;99.90;;;;;;5054005;28;20176;-49
2023/03/02 07:15:29;;;;;;;19.13;8.17;;;-1.00;99.90;;;;;;5053977;28;20606;-47
2023/03/02 07:17:55;;;;;;;15.57;7.53;;;-0.90;99.90;;;;;;5054358;28;20189;-48
2023/03/02 07:20:21;;;;;;;17.03;8.20;;;-0.80;99.90;;;;;;5054835;28;20199;-47
2023/03/02 07:22:46;;;;;;;15.03;7.57;;;-0.70;99.90;;;;;;5054091;28;20177;-46
2023/03/02 07:25:12;;;;;;;17.70;7.37;;;-0.70;99.90;;;;;;5054124;28;20180;-49
2023/03/02 07:27:38;;;;;;;13.27;7.53;;;-0.60;99.90;;;;;;5052800;28;20182;-47
2023/03/02 07:30:05;;;;;;;17.33;8.37;;;-0.50;99.90;;;;;;5053649;28;20459;-45
2023/03/02 07:32:31;;;;;;;14.77;8.33;;;-0.50;99.90;;;;;;5053909;28;20792;-49
2023/03/02 07:34:57;;;;;;;14.27;7.67;;;-0.40;99.90;;;;;;5053569;28;20490;-47
2023/03/02 07:37:22;;;;;;;17.17;8.03;;;-0.40;99.90;;;;;;5053369;28;20185;-52
2023/03/02 07:39:48;;;;;;;16.30;8.07;;;-0.30;99.90;;;;;;5053192;28;20664;-50
2023/03/02 07:42:14;;;;;;;16.63;7.70;;;-0.20;99.90;;;;;;5053809;28;20307;-51
2023/03/02 07:44:40;;;;;;;14.03;7.93;;;-0.20;99.90;;;;;;5053624;28;20569;-51
2023/03/02 07:47:06;;;;;;;19.23;7.97;;;-0.10;99.90;;;;;;5053235;28;20414;-51
2023/03/02 07:49:32;;;;;;;14.43;7.20;;;0.00;99.90;;;;;;5053088;28;20582;-51
2023/03/02 07:51:57;;;;;;;13.73;8.23;;;0.00;99.90;;;;;;5053054;28;20204;-51
2023/03/02 07:54:25;;;;;;;14.43;7.90;;;0.10;99.90;;;;;;5053171;28;20196;-49
2023/03/02 07:56:51;;;;;;;14.63;8.83;;;0.20;99.90;;;;;;5053473;28;20269;-51
2023/03/02 07:59:16;;;;;;;17.90;7.70;;;0.30;99.90;;;;;;5053740;28;20906;-50
2023/03/02 08:01:42;;;;;;;18.93;8.90;;;0.40;99.90;;;;;;5052999;28;20198;-50
2023/03/02 08:04:08;;;;;;;18.47;8.63;;;0.50;99.90;;;;;;5053155;28;20572;-50
2023/03/02 08:06:33;;;;;;;12.23;7.43;;;0.50;99.90;;;;;;5053124;28;20188;-51
2023/03/02 08:09:01;;;;;;;17.30;8.20;;;0.60;99.90;;;;;;5053322;28;20439;-51
2023/03/02 08:11:27;;;;;;;24.67;8.80;;;0.70;99.90;;;;;;5052949;28;20204;-49
2023/03/02 08:13:53;;;;;;;14.97;7.40;;;0.80;99.90;;;;;;5053006;28;20422;-51
2023/03/02 08:16:18;;;;;;;19.37;8.17;;;0.90;99.90;;;;;;5053285;28;20506;-50
2023/03/02 08:18:44;;;;;;;16.47;8.77;;;0.90;99.90;;;;;;5052999;28;20188;-50
2023/03/02 08:21:15;;;;;;;16.73;8.30;;;1.00;99.90;;;;;;5053102;28;20222;-49
2023/03/02 08:23:42;;;;;;;13.67;8.07;;;1.10;99.90;;;;;;5053177;28;20232;-48
2023/03/02 08:26:07;;;;;;;18.40;8.10;;;1.20;99.90;;;;;;5052876;28;20421;-50
2023/03/02 08:28:33;;;;;;;12.97;7.57;;;1.20;99.90;;;;;;5052805;28;20962;-50
2023/03/02 08:31:00;;;;;;;16.17;6.87;;;1.30;99.90;;;;;;5052633;28;20210;-50
2023/03/02 08:33:27;;;;;;;13.43;8.03;;;1.40;99.90;;;;;;5053069;28;20577;-52
2023/03/02 08:36:02;;;;;;;18.17;7.87;;;1.50;99.90;;;;;;5052786;28;20403;-52
2023/03/02 08:38:29;;;;;;;16.93;8.20;;;1.60;99.90;;;;;;5052694;28;20244;-52
2023/03/02 08:40:55;;;;;;;20.47;7.70;;;1.70;99.90;;;;;;5051518;28;20986;-51
2023/03/02 08:43:22;;;;;;;12.07;7.97;;;1.70;99.90;;;;;;5053143;28;20446;-52
2023/03/02 08:45:52;;;;;;;17.40;7.43;;;1.80;99.90;;;;;;5052936;28;20474;-50
2023/03/02 08:48:21;;;;;;;10.90;7.07;;;1.80;99.90;;;;;;5051411;28;20651;-52
2023/03/02 08:50:58;;;;;;;18.87;7.43;;;1.80;99.90;;;;;;5052566;28;20212;-51
2023/03/02 08:53:23;;;;;;;18.70;7.50;;;1.90;99.90;;;;;;5056273;28;20417;-52
2023/03/02 08:55:49;;;;;;;15.17;7.83;;;2.00;99.90;;;;;;5056322;28;20183;-51
2023/03/02 08:58:15;;;;;;;13.50;8.33;;;2.10;99.90;;;;;;5056424;28;20184;-49
2023/03/02 09:00:41;;;;;;;12.83;8.17;;;2.10;99.90;;;;;;5056082;28;20224;-51
2023/03/02 09:03:06;;;;;;;14.67;6.70;;;2.30;99.90;;;;;;5056326;28;20188;-51
2023/03/02 09:05:32;;;;;;;18.13;7.80;;;2.30;99.90;;;;;;5056238;28;20520;-51
2023/03/02 09:07:57;;;;;;;12.77;6.93;;;2.30;99.90;;;;;;5055988;28;20238;-51
2023/03/02 09:10:23;;;;;;;15.73;8.07;;;2.40;99.90;;;;;;5056205;28;20215;-51
2023/03/02 09:12:48;;;;;;;14.73;8.03;;;2.50;99.90;;;;;;5056294;28;20172;-51
2023/03/02 09:15:14;;;;;;;14.37;8.17;;;2.60;99.90;;;;;;5056180;28;20191;-48
2023/03/02 09:17:39;;;;;;;16.50;8.70;;;2.70;99.90;;;;;;5055806;28;20180;-48
2023/03/02 09:20:06;;;;;;;14.43;7.60;;;2.70;99.90;;;;;;5055919;28;20238;-48
2023/03/02 09:22:34;;;;;;;13.33;7.67;;;2.80;99.90;;;;;;5056022;28;20180;-47
2023/03/02 09:25:01;;;;;;;13.43;7.40;;;2.90;99.90;;;;;;5055734;28;20193;-48
2023/03/02 09:27:27;;;;;;;13.83;6.90;;;3.00;99.90;;;;;;5054400;28;20642;-47
2023/03/02 09:29:52;;;;;;;15.30;8.07;;;3.10;99.90;;;;;;5055566;28;20231;-49
2023/03/02 09:32:18;;;;;;;12.63;8.33;;;3.20;99.90;;;;;;5055816;28;20543;-51
2023/03/02 09:34:43;;;;;;;13.70;7.03;;;3.20;99.90;;;;;;5055786;28;20318;-51
2023/03/02 09:37:09;;;;;;;12.73;7.57;;;3.30;99.90;;;;;;5055453;28;20263;-51
2023/03/02 09:39:36;;;;;;;12.80;7.53;;;3.30;99.90;;;;;;5055575;28;20188;-51
2023/03/02 09:42:29;;;;;;;15.90;7.43;;;3.40;99.90;;;;;;5055613;28;20310;-50
2023/03/02 09:45:18;;;;;;;12.43;7.00;;;3.50;99.90;;;;;;5055648;28;20183;-51
2023/03/02 09:47:57;;;;;;;15.80;6.97;;;3.60;99.90;;;;;;5055637;28;20235;-49
2023/03/02 09:50:22;;;;;;;12.10;6.17;;;3.70;99.90;;;;;;5055185;28;20206;-52
2023/03/02 09:53:12;;;;;;;10.57;6.97;;;3.70;99.90;;;;;;5055240;28;20177;-49
2023/03/02 09:55:38;;;;;;;13.77;6.53;;;3.90;99.90;;;;;;5055116;28;20164;-49
2023/03/02 09:58:16;;;;;;;9.60;6.70;;;4.00;99.90;;;;;;5055151;28;20179;-50
2023/03/02 10:00:42;;;;;;;12.97;7.10;;;4.10;99.90;;;;;;5055185;28;20208;-50
2023/03/02 10:03:21;;;;;;;13.03;7.13;;;4.20;99.90;;;;;;5055216;28;20535;-51
2023/03/02 10:05:53;;;;;;;17.07;7.93;;;4.20;99.90;;;;;;5055286;28;20175;-50
2023/03/02 10:08:28;;;;;;;15.47;6.80;;;4.30;99.90;;;;;;5054897;28;20286;-52
2023/03/02 10:11:19;;;;;;;15.37;7.60;;;4.40;99.90;;;;;;5055381;28;20244;-49
2023/03/02 10:13:59;;;;;;;9.83;6.43;;;4.50;99.90;;;;;;5055043;28;20169;-52
2023/03/02 10:16:45;;;;;;;14.10;7.43;;;4.60;99.90;;;;;;5053550;28;20172;-51
2023/03/02 10:19:11;;;;;;;11.50;7.13;;;4.80;99.90;;;;;;5055002;28;20172;-50
2023/03/02 10:21:46;;;;;;;18.23;7.50;;;4.80;99.90;;;;;;5054824;28;20253;-52
2023/03/02 10:24:43;;;;;;;14.30;7.87;;;4.90;99.90;;;;;;5054941;28;20160;-51
2023/03/02 10:27:26;;;;;;;12.63;7.43;;;5.00;99.90;;;;;;5054558;28;20173;-51
2023/03/02 10:30:15;;;;;;;30.67;8.70;;;5.10;99.90;;;;;;5054327;28;20709;-51
2023/03/02 10:32:49;;;;;;;11.30;7.00;;;5.10;99.90;;;;;;5054709;28;20167;-51
2023/03/02 10:35:23;;;;;;;12.30;7.23;;;5.20;99.90;;;;;;5054410;28;20184;-47
2023/03/02 10:38:10;;;;;;;18.80;8.80;;;5.30;99.90;;;;;;5054886;28;20518;-47
2023/03/02 10:40:58;;;;;;;15.30;8.70;;;5.40;99.90;;;;;;5054500;28;20211;-49
2023/03/02 10:43:47;;;;;;;18.20;9.43;;;5.50;99.90;;;;;;5054498;28;20174;-50
2023/03/02 10:46:13;;;;;;;14.13;7.27;;;5.60;99.90;;;;;;5054557;28;20206;-49
2023/03/02 10:48:55;;;;;;;11.70;6.97;;;5.70;99.90;;;;;;5054071;28;20171;-49
2023/03/02 10:51:33;;;;;;;15.93;7.67;;;5.80;99.90;;;;;;5053901;28;20238;-49
2023/03/02 10:54:15;;;;;;;12.30;6.93;;;5.80;99.90;;;;;;5054676;28;20170;-48
2023/03/02 10:56:46;;;;;;;12.03;7.60;;;5.90;99.90;;;;;;5054289;28;20219;-49
2023/03/02 10:59:24;;;;;;;12.73;7.77;;;6.00;99.90;;;;;;5054516;28;20179;-48
2023/03/02 11:02:01;;;;;;;13.67;7.53;;;6.10;99.90;;;;;;5054102;28;20212;-48
2023/03/02 11:04:28;;;;;;;11.53;7.20;;;6.20;99.90;;;;;;5053846;28;20182;-48
2023/03/02 11:06:53;;;;;;;15.20;7.37;;;6.20;99.90;;;;;;5053841;28;20233;-46
2023/03/02 11:09:19;;;;;;;12.80;7.73;;;6.30;99.90;;;;;;5054041;28;20208;-47
2023/03/02 11:11:55;;;;;;;13.43;7.50;;;6.40;99.90;;;;;;5053860;28;20299;-47
2023/03/02 11:14:22;;;;;;;15.97;8.77;;;6.50;99.90;;;;;;5053376;28;20164;-48
2023/03/02 11:16:50;;;;;;;11.60;7.83;;;6.50;99.90;;;;;;5053601;28;20179;-49
2023/03/02 11:19:29;;;;;;;11.50;6.87;;;6.60;99.90;;;;;;5054174;28;20202;-50
2023/03/02 11:22:26;;;;;;;19.67;7.80;;;6.60;99.90;;;;;;5053602;28;20172;-50
2023/03/02 11:24:56;;;;;;;16.63;8.43;;;6.70;99.90;;;;;;5054087;28;20554;-49
2023/03/02 11:27:32;;;;;;;16.27;7.83;;;6.80;99.90;;;;;;5053785;28;20175;-51
2023/03/02 11:30:09;;;;;;;13.33;7.30;;;6.90;99.90;;;;;;5053341;28;20257;-50
2023/03/02 11:32:49;;;;;;;12.47;7.93;;;7.00;99.90;;;;;;5053842;28;20648;-49
2023/03/02 11:35:27;;;;;;;10.87;7.67;;;7.10;99.90;;;;;;5053794;28;20168;-50
2023/03/02 11:37:58;;;;;;;10.27;7.30;;;7.20;99.90;;;;;;5053814;28;20527;-48
2023/03/02 11:40:29;;;;;;;13.77;7.93;;;7.20;99.90;;;;;;5053403;28;20196;-52
2023/03/02 11:42:57;;;;;;;13.20;7.23;;;7.30;99.90;;;;;;5053461;28;20173;-52
2023/03/02 11:45:35;;;;;;;13.93;7.23;;;7.40;99.90;;;;;;5053388;28;20242;-51
2023/03/02 11:48:22;;;;;;;10.20;6.70;;;7.50;99.90;;;;;;5053644;28;20242;-51
2023/03/02 11:51:23;;;;;;;12.50;6.93;;;7.50;99.90;;;;;;5053660;28;20250;-49
2023/03/02 11:54:04;;;;;;;10.03;6.80;;;7.60;99.90;;;;;;5052134;28;20184;-49
2023/03/02 11:56:36;;;;;;;12.50;6.93;;;7.80;99.90;;;;;;5053290;28;20172;-47
2023/03/02 11:59:10;;;;;;;12.90;7.33;;;7.80;99.90;;;;;;5053266;28;20207;-49
2023/03/02 12:01:37;;;;;;;9.00;6.50;;;7.90;99.90;;;;;;5053017;28;20208;-49
2023/03/02 12:04:25;;;;;;;18.20;7.33;;;8.00;99.90;;;;;;5053443;28;20184;-49
2023/03/02 12:06:52;;;;;;;10.83;6.90;;;8.00;99.90;;;;;;5053205;28;20659;-49
2023/03/02 12:09:29;;;;;;;13.13;6.90;;;8.00;99.90;;;;;;5053347;28;20173;-49
2023/03/02 12:12:21;;;;;;;12.80;7.10;;;8.10;99.90;;;;;;5052950;28;20203;-50
2023/03/02 12:14:46;;;;;;;12.17;7.03;;;8.20;99.90;;;;;;5050297;28;20212;-48
2023/03/02 12:17:33;;;;;;;11.87;6.60;;;8.20;99.90;;;;;;5053032;28;20567;-50
2023/03/02 12:20:20;;;;;;;10.17;6.97;;;8.20;99.90;;;;;;5053180;28;20192;-50
2023/03/02 12:22:45;;;;;;;17.10;6.93;;;8.40;99.90;;;;;;5053270;28;20161;-49
2023/03/02 12:25:18;;;;;;;11.50;7.73;;;8.40;99.90;;;;;;5053362;28;20303;-48
2023/03/02 12:27:45;;;;;;;12.07;7.27;;;8.50;99.90;;;;;;5057064;28;20188;-51
2023/03/02 12:30:22;;;;;;;14.77;7.53;;;8.70;99.90;;;;;;5056833;28;20219;-50
2023/03/02 12:33:00;;;;;;;9.93;6.90;;;8.80;99.90;;;;;;5057015;28;20160;-50
2023/03/02 12:35:28;;;;;;;10.37;7.03;;;8.80;99.90;;;;;;5056726;28;20168;-49
2023/03/02 12:38:15;;;;;;;13.00;7.10;;;8.90;99.90;;;;;;5056845;28;20176;-51
2023/03/02 12:41:26;;;;;;;8.93;6.77;;;9.00;99.90;;;;;;5056597;28;20663;-49
2023/03/02 12:44:00;;;;;;;10.93;6.23;;;9.00;99.90;;;;;;5056787;28;20176;-48
2023/03/02 12:46:36;;;;;;;12.57;7.07;;;9.10;99.90;;;;;;5056798;28;20175;-49
2023/03/02 12:49:15;;;;;;;9.37;6.43;;;9.10;99.90;;;;;;5056701;28;20195;-48
2023/03/02 12:51:55;;;;;;;10.03;7.20;;;9.20;99.90;;;;;;5056581;28;20257;-50
2023/03/02 12:54:27;;;;;;;15.47;7.60;;;9.30;99.90;;;;;;5056597;28;20294;-49
2023/03/02 12:57:13;;;;;;;9.27;6.40;;;9.30;99.90;;;;;;5056372;28;20230;-49
2023/03/02 12:59:39;;;;;;;12.03;6.67;;;9.40;99.90;;;;;;5056563;28;20253;-48
2023/03/02 13:02:32;;;;;;;9.23;6.80;;;9.30;99.90;;;;;;5056367;28;20184;-49
2023/03/02 13:05:02;;;;;;;9.47;6.57;;;9.40;99.90;;;;;;5056064;28;20177;-50
2023/03/02 13:07:38;;;;;;;10.63;6.70;;;9.40;99.90;;;;;;5056040;28;20204;-50
2023/03/02 13:10:19;;;;;;;8.33;6.30;;;9.50;99.90;;;;;;5056093;28;20539;-50
2023/03/02 13:12:45;;;;;;;9.47;6.43;;;9.50;99.90;;;;;;5055946;28;20168;-51
2023/03/02 13:15:15;;;;;;;10.23;6.40;;;9.60;99.90;;;;;;5056199;28;20183;-52
2023/03/02 13:17:41;;;;;;;9.37;6.50;;;9.60;99.90;;;;;;5056222;28;20222;-48
2023/03/02 13:20:12;;;;;;;10.70;6.60;;;9.60;99.90;;;;;;5055975;28;20238;-50
2023/03/02 13:22:37;;;;;;;11.07;6.37;;;9.60;99.90;;;;;;5056097;28;20192;-50
2023/03/02 13:25:07;;;;;;;11.13;6.60;;;9.70;99.90;;;;;;5056054;28;20184;-47
2023/03/02 13:27:33;;;;;;;11.57;6.43;;;9.70;99.90;;;;;;5056168;28;20176;-48
2023/03/02 13:30:20;;;;;;;11.40;6.73;;;9.80;99.90;;;;;;5055607;28;20568;-47
2023/03/02 13:32:45;;;;;;;11.40;6.90;;;9.80;99.90;;;;;;5055729;28;20164;-49
2023/03/02 13:35:21;;;;;;;12.23;5.93;;;9.90;99.90;;;;;;5056195;28;20184;-48
2023/03/02 13:37:57;;;;;;;14.20;6.57;;;10.00;99.90;;;;;;5055328;28;20511;-48
2023/03/02 13:40:25;;;;;;;11.17;7.70;;;10.00;99.90;;;;;;5055574;28;20204;-47
2023/03/02 13:42:51;;;;;;;8.57;6.20;;;10.10;99.90;;;;;;5056137;28;20511;-47
2023/03/02 13:45:21;;;;;;;9.67;6.10;;;10.10;99.90;;;;;;5055363;28;20588;-49